Time;durP1;ratioP1;P1;durP2;ratioP2;P2;SDS_P1;SDS_P2;PMS_P1;PMS_P2;Temp;Humidity;BMP_temperature;BMP_pressure;BME280_temperature;BME280_humidity;BME280_pressure;Samples;Min_cycle;Max_cycle;Signal;HPM_P1;HPM_P2
2021/01/13 00:00:20;;;;;;;54.27;24.07;;;0.20;99.90;;;;;;4363853;32;20164;-71
2021/01/13 00:02:47;;;;;;;54.77;24.80;;;0.30;99.90;;;;;;4365563;32;20148;-71
2021/01/13 00:05:14;;;;;;;56.93;24.50;;;0.30;99.90;;;;;;4364008;33;20474;-71
2021/01/13 00:07:44;;;;;;;53.13;24.23;;;0.30;99.90;;;;;;4364362;33;20151;-71
2021/01/13 00:10:11;;;;;;;57.43;25.73;;;0.20;99.90;;;;;;4365431;33;20155;-72
2021/01/13 00:12:39;;;;;;;54.57;24.30;;;0.20;99.90;;;;;;4364120;32;20187;-72
2021/01/13 00:15:07;;;;;;;55.70;25.67;;;0.20;99.90;;;;;;4367150;32;20167;-72
2021/01/13 00:17:34;;;;;;;56.60;25.50;;;0.20;99.90;;;;;;4368138;32;20212;-71
2021/01/13 00:20:00;;;;;;;54.00;24.40;;;0.10;99.90;;;;;;4367072;32;20168;-72
2021/01/13 00:22:27;;;;;;;58.83;26.30;;;0.20;99.90;;;;;;4368492;32;20195;-71
2021/01/13 00:24:53;;;;;;;57.53;25.70;;;0.20;99.90;;;;;;4366507;32;20175;-71
2021/01/13 00:27:21;;;;;;;54.43;25.43;;;0.20;99.90;;;;;;4368683;32;20144;-71
2021/01/13 00:29:52;;;;;;;56.07;25.23;;;0.20;99.90;;;;;;4368380;32;20203;-71
2021/01/13 00:32:19;;;;;;;56.77;26.13;;;0.30;99.90;;;;;;4366944;32;20176;-71
2021/01/13 00:34:46;;;;;;;51.73;24.53;;;0.20;99.90;;;;;;4366382;32;20167;-72
2021/01/13 00:37:13;;;;;;;55.07;25.07;;;0.30;99.90;;;;;;4366865;32;20477;-71
2021/01/13 00:39:41;;;;;;;54.43;24.87;;;0.30;99.90;;;;;;4366820;32;20152;-72
2021/01/13 00:42:08;;;;;;;53.73;25.10;;;0.20;99.90;;;;;;4366680;32;20413;-72
2021/01/13 00:44:35;;;;;;;56.30;25.73;;;0.20;99.90;;;;;;4367698;32;20144;-71
2021/01/13 00:47:01;;;;;;;58.43;26.13;;;0.20;99.90;;;;;;4366670;32;20262;-71
2021/01/13 00:49:29;;;;;;;60.17;26.43;;;0.20;99.90;;;;;;4368539;32;20160;-72
2021/01/13 00:51:55;;;;;;;61.03;26.73;;;0.30;99.90;;;;;;4368163;32;20199;-73
2021/01/13 00:54:21;;;;;;;56.10;24.60;;;0.20;99.90;;;;;;4366441;32;20190;-72
2021/01/13 00:56:49;;;;;;;57.80;25.47;;;0.20;99.90;;;;;;4366668;32;20234;-73
2021/01/13 00:59:15;;;;;;;56.00;26.20;;;0.20;99.90;;;;;;4366496;32;20183;-72
2021/01/13 01:01:45;;;;;;;56.80;25.53;;;0.10;99.90;;;;;;4368003;32;20144;-73
2021/01/13 01:04:12;;;;;;;57.73;26.13;;;0.10;99.90;;;;;;4367405;32;20438;-73
2021/01/13 01:06:39;;;;;;;59.10;26.87;;;0.20;99.90;;;;;;4367747;32;20234;-73
2021/01/13 01:09:07;;;;;;;59.83;26.30;;;0.20;99.90;;;;;;4366439;32;20234;-73
2021/01/13 01:11:38;;;;;;;58.53;26.63;;;0.20;99.90;;;;;;4366999;32;20148;-74
2021/01/13 01:14:06;;;;;;;60.63;26.97;;;0.20;99.90;;;;;;4367412;32;20164;-74
2021/01/13 01:16:34;;;;;;;58.53;26.50;;;0.20;99.90;;;;;;4367778;32;20183;-73
2021/01/13 01:19:01;;;;;;;58.47;25.27;;;0.20;99.90;;;;;;4367664;32;20155;-74
2021/01/13 01:21:28;;;;;;;56.93;25.80;;;0.30;99.90;;;;;;4367721;32;20188;-72
2021/01/13 01:23:55;;;;;;;59.60;26.53;;;0.30;99.90;;;;;;4367901;32;20198;-73
2021/01/13 01:26:21;;;;;;;59.87;26.73;;;0.30;99.90;;;;;;4366143;32;20160;-73
2021/01/13 01:28:48;;;;;;;54.37;25.37;;;0.30;99.90;;;;;;4367622;32;20522;-73
2021/01/13 01:31:15;;;;;;;56.10;26.30;;;0.30;99.90;;;;;;4365610;32;20156;-73
2021/01/13 01:33:43;;;;;;;58.70;25.47;;;0.30;99.90;;;;;;4367790;32;20148;-73
2021/01/13 01:36:10;;;;;;;54.03;25.47;;;0.30;99.90;;;;;;4366114;32;20209;-73
2021/01/13 01:38:36;;;;;;;56.17;26.33;;;0.40;99.90;;;;;;4365970;32;20167;-73
2021/01/13 01:41:08;;;;;;;54.73;25.80;;;0.40;99.90;;;;;;4365973;32;20148;-73
2021/01/13 01:43:35;;;;;;;56.60;25.37;;;0.30;99.90;;;;;;4366279;32;20183;-73
2021/01/13 01:46:04;;;;;;;51.37;23.87;;;0.40;99.90;;;;;;4367597;32;20167;-73
2021/01/13 01:48:48;;;;;;;53.50;25.47;;;0.40;99.90;;;;;;4365925;32;20179;-73
2021/01/13 01:51:26;;;;;;;53.70;24.97;;;0.40;99.90;;;;;;4367439;32;20451;-73
2021/01/13 01:54:22;;;;;;;51.27;23.17;;;0.50;99.90;;;;;;4365956;32;20227;-73
2021/01/13 01:56:53;;;;;;;57.80;24.50;;;0.40;99.90;;;;;;4366110;32;20206;-73
2021/01/13 01:59:34;;;;;;;53.97;23.33;;;0.40;99.90;;;;;;4365646;32;20166;-73
2021/01/13 02:02:03;;;;;;;54.60;23.93;;;0.40;99.90;;;;;;4365801;32;20191;-73
2021/01/13 02:04:31;;;;;;;51.07;23.70;;;0.50;99.90;;;;;;4366191;32;20153;-73
2021/01/13 02:06:57;;;;;;;57.20;23.47;;;0.50;99.90;;;;;;4367096;32;20262;-73
2021/01/13 02:09:28;;;;;;;49.90;22.23;;;0.50;99.90;;;;;;4365329;32;20421;-73
2021/01/13 02:11:57;;;;;;;48.40;21.77;;;0.60;99.90;;;;;;4365445;32;20172;-72
2021/01/13 02:14:25;;;;;;;53.43;23.23;;;0.50;99.90;;;;;;4365555;32;20227;-72
2021/01/13 02:16:54;;;;;;;52.00;23.50;;;0.60;99.90;;;;;;4366555;32;20152;-72
2021/01/13 02:19:48;;;;;;;47.80;22.13;;;0.60;99.90;;;;;;4365409;32;20156;-72
2021/01/13 02:22:19;;;;;;;54.07;22.70;;;0.60;99.90;;;;;;4365696;32;20156;-72
2021/01/13 02:25:05;;;;;;;49.53;22.40;;;0.60;99.90;;;;;;4367328;32;20174;-72
2021/01/13 02:27:50;;;;;;;53.60;22.63;;;0.60;99.90;;;;;;4366810;32;20177;-72
2021/01/13 02:30:20;;;;;;;51.03;22.13;;;0.60;99.90;;;;;;4366838;32;20215;-72
2021/01/13 02:32:53;;;;;;;53.70;22.30;;;0.50;99.90;;;;;;4366740;32;20152;-71
2021/01/13 02:35:25;;;;;;;53.50;22.90;;;0.50;99.90;;;;;;4365290;32;20170;-71
2021/01/13 02:38:03;;;;;;;54.60;23.27;;;0.60;99.90;;;;;;4365975;32;20164;-71
2021/01/13 02:40:34;;;;;;;49.77;21.73;;;0.60;99.90;;;;;;4352230;33;20171;-71
2021/01/13 02:43:10;;;;;;;49.10;21.63;;;0.60;99.90;;;;;;4365196;32;20222;-71
2021/01/13 02:45:43;;;;;;;52.17;22.30;;;0.60;99.90;;;;;;4366825;32;20151;-70
2021/01/13 02:48:11;;;;;;;48.03;21.23;;;0.50;99.90;;;;;;4366635;32;20146;-70
2021/01/13 02:50:49;;;;;;;48.77;21.73;;;0.50;99.90;;;;;;4364938;32;20198;-70
2021/01/13 02:53:16;;;;;;;47.13;20.47;;;0.60;99.90;;;;;;4364872;32;20548;-70
2021/01/13 02:55:42;;;;;;;46.17;21.00;;;0.50;99.90;;;;;;4364964;32;20197;-70
2021/01/13 02:58:10;;;;;;;43.97;19.50;;;0.50;99.90;;;;;;4364966;32;20243;-70
2021/01/13 03:00:37;;;;;;;47.23;20.20;;;0.50;99.90;;;;;;4365351;32;20175;-70
2021/01/13 03:03:04;;;;;;;39.80;17.67;;;0.50;99.90;;;;;;4365552;32;20178;-70
2021/01/13 03:05:32;;;;;;;40.17;18.10;;;0.60;99.90;;;;;;4366266;32;20192;-70
2021/01/13 03:07:59;;;;;;;37.63;17.37;;;0.60;99.90;;;;;;4365040;32;20207;-71
2021/01/13 03:10:27;;;;;;;38.80;17.23;;;0.60;99.90;;;;;;4364703;32;20153;-70
2021/01/13 03:13:01;;;;;;;31.77;16.17;;;0.50;99.90;;;;;;4364976;32;20194;-70
2021/01/13 03:15:30;;;;;;;31.43;15.13;;;0.50;99.90;;;;;;4365387;32;20447;-71
2021/01/13 03:18:06;;;;;;;30.57;15.13;;;0.50;99.90;;;;;;4364600;32;20459;-71
2021/01/13 03:20:50;;;;;;;29.30;14.93;;;0.50;99.90;;;;;;4364792;32;20434;-71
2021/01/13 03:23:42;;;;;;;30.03;13.47;;;0.60;99.90;;;;;;4366112;32;20517;-71
2021/01/13 03:26:12;;;;;;;25.80;13.10;;;0.50;99.90;;;;;;4365087;32;20166;-71
2021/01/13 03:28:41;;;;;;;29.70;14.67;;;0.40;99.90;;;;;;4364544;32;20176;-70
2021/01/13 03:31:13;;;;;;;27.80;13.73;;;0.40;99.90;;;;;;4364446;32;20195;-71
2021/01/13 03:34:21;;;;;;;28.30;14.00;;;0.40;99.90;;;;;;4364541;32;20211;-71
2021/01/13 03:37:26;;;;;;;24.13;12.50;;;0.40;99.90;;;;;;4364349;32;20160;-71
2021/01/13 03:39:56;;;;;;;24.17;12.47;;;0.30;99.90;;;;;;4303592;33;20430;-71
2021/01/13 03:42:23;;;;;;;20.17;11.80;;;0.30;99.90;;;;;;4304623;33;20209;-71
2021/01/13 03:44:50;;;;;;;22.90;11.70;;;0.30;99.90;;;;;;4303976;33;20157;-71
2021/01/13 03:47:19;;;;;;;20.40;10.97;;;0.30;99.90;;;;;;4303213;33;20188;-71
2021/01/13 03:50:14;;;;;;;20.53;10.97;;;0.30;99.90;;;;;;4302944;33;20152;-70
2021/01/13 03:52:54;;;;;;;17.93;9.93;;;0.20;99.90;;;;;;4304359;33;20216;-70
2021/01/13 03:55:26;;;;;;;17.93;9.73;;;0.20;99.90;;;;;;4302747;33;20515;-70
2021/01/13 03:58:20;;;;;;;20.17;9.97;;;0.10;99.90;;;;;;4303330;33;20173;-70
2021/01/13 04:01:03;;;;;;;18.07;10.03;;;0.00;99.90;;;;;;4303942;33;20535;-70
2021/01/13 04:03:33;;;;;;;20.13;10.87;;;0.10;99.90;;;;;;4304175;33;20187;-70
2021/01/13 04:06:09;;;;;;;17.00;10.03;;;0.10;99.90;;;;;;4303832;33;20175;-71
2021/01/13 04:08:42;;;;;;;16.33;10.00;;;0.10;99.90;;;;;;4303874;33;20169;-71
2021/01/13 04:11:17;;;;;;;16.03;8.67;;;0.00;99.90;;;;;;4303875;33;20232;-71
2021/01/13 04:13:47;;;;;;;16.27;8.80;;;0.00;99.90;;;;;;4303191;33;20455;-71
2021/01/13 04:16:16;;;;;;;14.17;8.53;;;0.00;99.90;;;;;;4331463;33;20351;-71
2021/01/13 04:18:48;;;;;;;14.87;8.30;;;0.00;99.90;;;;;;4364032;33;20201;-71
2021/01/13 04:21:17;;;;;;;12.07;7.40;;;0.00;99.90;;;;;;4365463;33;20171;-71
2021/01/13 04:23:45;;;;;;;13.90;7.30;;;-0.10;99.90;;;;;;4364989;33;20155;-71
2021/01/13 04:26:12;;;;;;;11.30;7.07;;;-0.10;99.90;;;;;;4365414;33;20160;-71
2021/01/13 04:28:40;;;;;;;14.80;7.30;;;-0.10;99.90;;;;;;4365100;33;20231;-71
2021/01/13 04:31:07;;;;;;;14.53;7.00;;;-0.10;99.90;;;;;;4364739;33;20160;-71
2021/01/13 04:33:34;;;;;;;9.40;6.60;;;-0.10;99.90;;;;;;4363841;33;20466;-71
2021/01/13 04:36:01;;;;;;;10.93;6.47;;;0.00;99.90;;;;;;4364005;33;20392;-71
2021/01/13 04:38:31;;;;;;;10.60;6.40;;;0.00;99.90;;;;;;4364479;33;20175;-72
2021/01/13 04:41:38;;;;;;;12.70;6.33;;;-0.10;99.90;;;;;;4363962;33;20152;-72
2021/01/13 04:44:14;;;;;;;8.40;5.80;;;-0.10;99.90;;;;;;4304695;33;20488;-72
2021/01/13 04:46:44;;;;;;;9.87;5.73;;;-0.20;99.90;;;;;;4303508;33;20207;-72
2021/01/13 04:49:11;;;;;;;11.13;6.40;;;-0.20;99.90;;;;;;4303062;33;20528;-72
2021/01/13 04:51:41;;;;;;;9.87;6.00;;;-0.10;99.90;;;;;;4303885;33;20175;-72
2021/01/13 04:54:15;;;;;;;12.40;6.57;;;-0.20;99.90;;;;;;4302987;33;20201;-72
2021/01/13 04:56:44;;;;;;;9.17;5.43;;;-0.20;99.90;;;;;;4303423;33;20200;-72
2021/01/13 04:59:48;;;;;;;10.53;6.30;;;-0.20;99.90;;;;;;4302952;33;20173;-72
2021/01/13 05:02:21;;;;;;;9.20;5.80;;;-0.30;99.90;;;;;;4305552;33;20226;-72
2021/01/13 05:04:54;;;;;;;10.70;5.50;;;-0.30;99.90;;;;;;4319877;33;20214;-72
2021/01/13 05:07:33;;;;;;;10.53;6.07;;;-0.30;99.90;;;;;;4320208;33;20165;-72
2021/01/13 05:10:16;;;;;;;9.10;5.50;;;-0.30;99.90;;;;;;4319923;33;20173;-72
2021/01/13 05:12:56;;;;;;;9.77;5.70;;;-0.40;99.90;;;;;;4320123;33;20235;-72
2021/01/13 05:15:27;;;;;;;11.60;5.90;;;-0.40;99.90;;;;;;4320423;33;20463;-72
2021/01/13 05:18:11;;;;;;;8.60;5.40;;;-0.40;99.90;;;;;;4320343;33;20289;-72
2021/01/13 05:20:39;;;;;;;11.37;5.63;;;-0.40;99.90;;;;;;4363243;33;20494;-72
2021/01/13 05:23:10;;;;;;;9.00;5.30;;;-0.50;99.90;;;;;;4366698;32;20188;-72
2021/01/13 05:25:38;;;;;;;11.97;5.93;;;-0.50;99.90;;;;;;4365635;32;20198;-72
2021/01/13 05:28:10;;;;;;;9.57;5.30;;;-0.50;99.90;;;;;;4366362;32;20520;-72
2021/01/13 05:30:48;;;;;;;7.50;4.50;;;-0.40;99.90;;;;;;4365515;32;20169;-72
2021/01/13 05:33:17;;;;;;;7.37;4.13;;;-0.40;99.90;;;;;;4362569;32;20180;-73
2021/01/13 05:35:48;;;;;;;7.67;4.80;;;-0.50;99.90;;;;;;4366783;32;20144;-72
2021/01/13 05:38:38;;;;;;;9.43;4.57;;;-0.40;99.90;;;;;;4367523;32;20155;-72
2021/01/13 05:41:14;;;;;;;8.53;5.20;;;-0.40;99.90;;;;;;4319506;33;20177;-72
2021/01/13 05:43:43;;;;;;;6.43;4.23;;;-0.50;99.90;;;;;;4320030;33;20356;-72
2021/01/13 05:46:11;;;;;;;8.77;5.00;;;-0.50;99.90;;;;;;4319211;33;20481;-73
2021/01/13 05:48:46;;;;;;;8.27;4.70;;;-0.50;99.90;;;;;;4320232;33;20165;-72
2021/01/13 05:51:13;;;;;;;9.63;5.30;;;-0.50;99.90;;;;;;4319426;33;20180;-72
2021/01/13 05:54:02;;;;;;;12.37;6.20;;;-0.50;99.90;;;;;;4319746;33;20552;-75
2021/01/13 05:56:29;;;;;;;9.63;6.00;;;-0.50;99.90;;;;;;4318876;33;20196;-76
2021/01/13 05:59:03;;;;;;;11.63;6.13;;;-0.50;99.90;;;;;;4319420;33;20651;-73
2021/01/13 06:01:32;;;;;;;12.17;6.27;;;-0.50;99.90;;;;;;4319981;33;20160;-73
2021/01/13 06:03:59;;;;;;;12.00;6.10;;;-0.50;99.90;;;;;;4320974;33;20259;-72
2021/01/13 06:06:28;;;;;;;11.30;6.50;;;-0.50;99.90;;;;;;4315480;33;20195;-73
2021/01/13 06:09:08;;;;;;;13.50;6.40;;;-0.50;99.90;;;;;;4309571;33;20478;-74
2021/01/13 06:11:54;;;;;;;13.33;5.83;;;-0.50;99.90;;;;;;4313942;33;20165;-75
2021/01/13 06:14:25;;;;;;;9.50;5.60;;;-0.50;99.90;;;;;;4319198;33;20181;-72
2021/01/13 06:16:53;;;;;;;10.37;6.03;;;-0.50;99.90;;;;;;4318996;33;20176;-73
2021/01/13 06:19:21;;;;;;;11.33;5.73;;;-0.70;99.90;;;;;;4351897;33;20153;-73
2021/01/13 06:22:05;;;;;;;10.90;5.90;;;-0.70;99.90;;;;;;4350527;33;20167;-73
2021/01/13 06:24:36;;;;;;;12.83;5.97;;;-0.70;99.90;;;;;;4351601;33;20164;-73
2021/01/13 06:27:16;;;;;;;10.10;5.97;;;-0.60;99.90;;;;;;4354303;32;20229;-73
2021/01/13 06:29:47;;;;;;;10.60;5.50;;;-0.50;99.90;;;;;;4353558;33;20198;-73
2021/01/13 06:32:30;;;;;;;9.27;5.87;;;-0.50;99.90;;;;;;4365066;32;20486;-73
2021/01/13 06:35:38;;;;;;;9.50;5.40;;;-0.60;99.90;;;;;;4365648;32;20175;-73
2021/01/13 06:38:25;;;;;;;8.87;5.20;;;-0.70;99.90;;;;;;4354902;33;20213;-73
2021/01/13 06:41:00;;;;;;;10.73;5.30;;;-0.80;99.90;;;;;;4364691;32;20172;-73
2021/01/13 06:43:30;;;;;;;7.83;5.27;;;-0.80;99.90;;;;;;4362985;32;20155;-74
2021/01/13 06:45:57;;;;;;;7.83;4.73;;;-0.90;99.90;;;;;;4364387;32;20156;-73
2021/01/13 06:48:27;;;;;;;7.87;4.97;;;-0.80;99.90;;;;;;4365043;32;20422;-72
2021/01/13 06:51:00;;;;;;;10.90;5.37;;;-0.90;99.90;;;;;;4364630;32;20204;-73
2021/01/13 06:53:34;;;;;;;8.67;4.90;;;-0.90;99.90;;;;;;4372495;32;20195;-73
2021/01/13 06:56:09;;;;;;;8.33;5.07;;;-0.90;99.90;;;;;;4364872;32;20207;-73
2021/01/13 06:58:37;;;;;;;10.73;6.10;;;-0.90;99.90;;;;;;4364995;32;20197;-74
2021/01/13 07:01:05;;;;;;;10.07;5.37;;;-0.90;99.90;;;;;;4364842;32;20166;-73
2021/01/13 07:03:32;;;;;;;9.17;5.10;;;-0.80;99.90;;;;;;4364927;32;20152;-73
2021/01/13 07:06:08;;;;;;;10.43;5.73;;;-0.80;99.90;;;;;;4365949;32;20187;-74
2021/01/13 07:08:35;;;;;;;10.63;5.57;;;-0.70;99.90;;;;;;4364642;32;20350;-73
2021/01/13 07:11:08;;;;;;;8.13;5.03;;;-0.70;99.90;;;;;;4364583;32;20411;-75
2021/01/13 07:13:47;;;;;;;7.40;5.27;;;-0.70;99.90;;;;;;4364395;32;20373;-74
2021/01/13 07:16:15;;;;;;;8.50;5.50;;;-0.70;99.90;;;;;;4365518;32;20152;-73
2021/01/13 07:18:45;;;;;;;10.87;6.23;;;-0.60;99.90;;;;;;4367943;32;20164;-71
2021/01/13 07:21:12;;;;;;;11.00;5.63;;;-0.50;99.90;;;;;;4364687;32;20152;-69
2021/01/13 07:23:46;;;;;;;11.07;5.83;;;-0.60;99.90;;;;;;4365710;32;20494;-71
2021/01/13 07:26:13;;;;;;;10.77;5.93;;;-0.50;99.90;;;;;;4362697;32;20191;-71
2021/01/13 07:28:41;;;;;;;10.83;6.00;;;-0.50;99.90;;;;;;4362511;32;20157;-71
2021/01/13 07:31:08;;;;;;;10.70;5.60;;;-0.50;99.90;;;;;;4362456;32;20246;-73
2021/01/13 07:33:40;;;;;;;10.23;5.63;;;-0.60;99.90;;;;;;4364183;32;20380;-73
2021/01/13 07:36:12;;;;;;;11.17;6.30;;;-0.60;99.90;;;;;;4364377;32;20164;-74
2021/01/13 07:38:44;;;;;;;10.00;6.07;;;-0.50;99.90;;;;;;4365763;32;20401;-74
2021/01/13 07:41:36;;;;;;;10.33;5.90;;;-0.40;99.90;;;;;;4364033;32;20155;-74
2021/01/13 07:44:03;;;;;;;13.67;6.30;;;-0.40;99.90;;;;;;4364225;32;20210;-72
2021/01/13 07:46:33;;;;;;;11.80;6.03;;;-0.30;99.90;;;;;;4364130;32;20211;-72
2021/01/13 07:49:15;;;;;;;10.87;6.07;;;-0.20;99.90;;;;;;4364034;32;20464;-73
2021/01/13 07:51:53;;;;;;;13.33;6.33;;;-0.10;99.90;;;;;;4354148;33;20211;-74
2021/01/13 07:54:33;;;;;;;11.43;5.77;;;-0.10;99.90;;;;;;4365695;32;20195;-73
2021/01/13 07:57:06;;;;;;;12.80;6.07;;;-0.20;99.90;;;;;;4364181;32;20224;-73
2021/01/13 08:00:06;;;;;;;12.00;6.40;;;-0.20;99.90;;;;;;4352696;33;20509;-74
2021/01/13 08:03:23;;;;;;;11.80;6.83;;;-0.20;99.90;;;;;;4365765;32;20213;-73
2021/01/13 08:06:11;;;;;;;12.10;6.87;;;-0.10;99.90;;;;;;4323950;33;20443;-72
2021/01/13 08:09:06;;;;;;;11.73;6.53;;;-0.10;99.90;;;;;;4322499;33;20239;-72
2021/01/13 08:11:52;;;;;;;13.80;6.63;;;0.00;99.90;;;;;;4322938;33;20195;-72
2021/01/13 08:14:37;;;;;;;13.20;7.07;;;-0.20;99.90;;;;;;4324807;33;20156;-73
2021/01/13 08:24:48;;;;;;;14.40;8.13;;;0.00;99.90;;;;;;4259269;33;20181;-72
2021/01/13 08:27:15;;;;;;;17.57;9.00;;;-0.20;99.90;;;;;;4273708;33;20166;-73
2021/01/13 08:29:43;;;;;;;17.20;8.80;;;-0.20;99.90;;;;;;4274054;33;20255;-72
2021/01/13 08:32:11;;;;;;;15.23;9.17;;;-0.20;99.90;;;;;;4274203;33;20201;-73
2021/01/13 08:34:39;;;;;;;16.67;9.13;;;-0.20;99.90;;;;;;4275142;33;20159;-73
2021/01/13 08:37:07;;;;;;;20.33;9.87;;;0.00;99.90;;;;;;4276286;33;20169;-72
2021/01/13 08:39:35;;;;;;;16.17;10.10;;;0.10;99.90;;;;;;4276648;33;20216;-73
2021/01/13 08:42:25;;;;;;;19.73;10.27;;;0.10;99.90;;;;;;4288714;33;20188;-73
2021/01/13 08:44:56;;;;;;;22.50;11.17;;;0.20;99.90;;;;;;4307173;33;20161;-78
2021/01/13 08:47:24;;;;;;;23.23;12.27;;;0.20;99.90;;;;;;4307366;33;20208;-74
2021/01/13 08:50:09;;;;;;;23.93;12.43;;;0.20;99.90;;;;;;4310063;33;20153;-73
2021/01/13 08:53:01;;;;;;;25.83;13.67;;;0.20;99.90;;;;;;4310480;33;20212;-73
2021/01/13 08:55:27;;;;;;;27.13;13.70;;;0.00;99.90;;;;;;4312115;33;20207;-73
2021/01/13 08:58:01;;;;;;;30.80;15.27;;;0.10;99.90;;;;;;4306309;33;20229;-73
2021/01/13 09:00:29;;;;;;;38.30;15.90;;;0.20;99.90;;;;;;4320251;32;20197;-73
2021/01/13 09:03:05;;;;;;;32.47;15.13;;;0.10;99.90;;;;;;4373393;32;20394;-72
2021/01/13 09:05:34;;;;;;;34.70;14.43;;;0.10;99.90;;;;;;4372738;32;20213;-72
2021/01/13 09:08:03;;;;;;;32.67;15.00;;;0.10;99.90;;;;;;4367552;32;20186;-73
2021/01/13 09:10:59;;;;;;;31.50;14.47;;;0.00;99.90;;;;;;4366081;32;20526;-73
2021/01/13 09:13:33;;;;;;;32.93;14.83;;;-0.10;99.90;;;;;;4305257;33;20598;-72
2021/01/13 09:16:22;;;;;;;33.73;15.53;;;-0.10;99.90;;;;;;4305391;33;20671;-73
2021/01/13 09:18:56;;;;;;;37.53;16.27;;;-0.10;99.90;;;;;;4304881;33;20206;-73
2021/01/13 09:21:33;;;;;;;29.70;14.23;;;0.00;99.90;;;;;;4304910;33;20228;-74
2021/01/13 09:24:01;;;;;;;32.90;15.40;;;0.10;99.90;;;;;;4305535;33;20198;-74
2021/01/13 09:26:33;;;;;;;36.03;16.17;;;0.10;99.90;;;;;;4306619;33;20238;-75
2021/01/13 09:29:02;;;;;;;34.53;15.37;;;0.20;99.90;;;;;;4304929;33;20404;-75
2021/01/13 09:31:30;;;;;;;31.43;15.17;;;0.20;99.90;;;;;;4304969;33;20272;-74
2021/01/13 09:33:57;;;;;;;36.97;15.97;;;0.20;99.90;;;;;;4294003;33;20196;-74
2021/01/13 09:36:24;;;;;;;29.13;14.67;;;0.20;99.90;;;;;;4304317;33;20618;-73
2021/01/13 09:39:10;;;;;;;37.97;16.20;;;0.20;99.90;;;;;;4305197;33;20157;-74
2021/01/13 09:41:40;;;;;;;35.00;14.97;;;0.20;99.90;;;;;;4294348;33;20173;-73
2021/01/13 09:44:12;;;;;;;34.87;15.83;;;0.20;99.90;;;;;;4305763;33;20196;-75
2021/01/13 09:46:40;;;;;;;36.47;15.23;;;0.20;99.90;;;;;;4303461;33;20229;-76
2021/01/13 09:49:09;;;;;;;28.20;13.60;;;0.20;99.90;;;;;;4313787;33;20163;-75
2021/01/13 09:51:40;;;;;;;31.30;14.30;;;0.10;99.90;;;;;;4365242;32;20164;-74
2021/01/13 09:54:08;;;;;;;30.27;14.07;;;0.20;99.90;;;;;;4373294;32;20361;-74
2021/01/13 09:56:36;;;;;;;27.17;13.10;;;0.30;99.90;;;;;;4371219;32;20164;-75
2021/01/13 09:59:06;;;;;;;27.27;13.50;;;0.40;99.90;;;;;;4364565;32;20160;-75
2021/01/13 10:01:37;;;;;;;25.00;13.07;;;0.40;99.90;;;;;;4363790;32;20164;-75
2021/01/13 10:04:12;;;;;;;25.57;12.63;;;0.50;99.90;;;;;;4365651;32;20178;-75
2021/01/13 10:06:41;;;;;;;26.53;12.17;;;0.50;99.90;;;;;;4365459;32;20206;-75
2021/01/13 10:09:18;;;;;;;24.27;12.57;;;0.70;99.90;;;;;;4365850;32;20143;-75
2021/01/13 10:11:52;;;;;;;27.07;12.93;;;0.50;99.90;;;;;;4365487;32;20184;-75
2021/01/13 10:14:20;;;;;;;24.53;12.10;;;0.60;99.90;;;;;;4366520;32;20307;-75
2021/01/13 10:16:48;;;;;;;25.30;12.17;;;0.60;99.90;;;;;;4364385;32;20182;-75
2021/01/13 10:19:17;;;;;;;22.87;11.43;;;0.40;99.90;;;;;;4370610;32;20194;-74
2021/01/13 10:21:50;;;;;;;23.10;11.23;;;0.40;99.90;;;;;;4369167;32;20238;-73
2021/01/13 10:24:18;;;;;;;24.63;12.10;;;0.40;99.90;;;;;;4364834;32;20200;-75
2021/01/13 10:26:48;;;;;;;25.63;12.50;;;0.40;99.90;;;;;;4369891;32;20152;-74
2021/01/13 10:29:23;;;;;;;25.63;11.80;;;0.30;99.90;;;;;;4365241;32;20189;-74
2021/01/13 10:31:51;;;;;;;28.30;11.63;;;0.40;99.90;;;;;;4365132;32;20181;-74
2021/01/13 10:34:18;;;;;;;23.27;10.90;;;0.60;99.90;;;;;;4364978;32;20155;-74
2021/01/13 10:36:49;;;;;;;26.03;10.87;;;0.60;99.90;;;;;;4364850;32;20148;-73
2021/01/13 10:39:23;;;;;;;21.90;10.40;;;0.40;99.90;;;;;;4365551;32;20171;-73
2021/01/13 10:41:52;;;;;;;23.07;10.00;;;0.40;99.90;;;;;;4365348;32;20192;-73
2021/01/13 10:44:28;;;;;;;21.20;10.23;;;0.50;99.90;;;;;;4366485;32;20156;-73
2021/01/13 10:46:58;;;;;;;18.67;9.50;;;0.50;99.90;;;;;;4365421;32;20201;-73
2021/01/13 10:49:32;;;;;;;17.60;9.43;;;0.50;99.90;;;;;;4364928;32;20152;-73
2021/01/13 10:52:00;;;;;;;17.27;9.10;;;0.50;99.90;;;;;;4365060;32;20220;-74
2021/01/13 10:54:29;;;;;;;20.83;9.97;;;0.40;99.90;;;;;;4363904;32;20165;-74
2021/01/13 10:57:02;;;;;;;20.03;9.77;;;0.40;99.90;;;;;;4363426;32;20152;-74
2021/01/13 10:59:29;;;;;;;19.10;9.27;;;0.40;99.90;;;;;;4364186;32;20198;-74
2021/01/13 11:02:03;;;;;;;20.93;9.03;;;0.50;99.90;;;;;;4364809;32;20405;-74
2021/01/13 11:04:34;;;;;;;20.53;9.43;;;0.60;99.90;;;;;;4365240;32;20143;-74
2021/01/13 11:07:12;;;;;;;19.97;9.00;;;0.60;99.90;;;;;;4364400;32;20173;-74
2021/01/13 11:09:44;;;;;;;15.20;7.93;;;0.70;99.90;;;;;;4351425;33;20254;-74
2021/01/13 11:12:17;;;;;;;19.57;8.43;;;0.70;99.90;;;;;;4364735;32;20385;-74
2021/01/13 11:14:47;;;;;;;17.33;8.60;;;0.70;99.90;;;;;;4364219;32;20211;-73
2021/01/13 11:17:21;;;;;;;18.47;7.97;;;0.60;99.90;;;;;;4364467;32;20205;-73
2021/01/13 11:19:55;;;;;;;16.33;8.50;;;0.70;99.90;;;;;;4364588;32;20223;-73
2021/01/13 11:22:50;;;;;;;18.40;8.30;;;0.80;99.90;;;;;;4364023;32;20152;-73
2021/01/13 11:25:21;;;;;;;20.83;9.13;;;0.70;99.90;;;;;;4365017;32;20182;-73
2021/01/13 11:27:59;;;;;;;17.57;9.23;;;0.70;99.90;;;;;;4363792;32;20156;-73
2021/01/13 11:30:28;;;;;;;16.53;9.20;;;0.90;99.90;;;;;;4365728;32;20160;-72
2021/01/13 11:32:57;;;;;;;17.60;9.63;;;0.70;99.90;;;;;;4364309;32;20149;-72
2021/01/13 11:35:37;;;;;;;17.57;9.00;;;0.80;99.90;;;;;;4364314;32;20152;-74
2021/01/13 11:38:36;;;;;;;18.13;8.67;;;0.90;99.90;;;;;;4364184;32;20186;-73
2021/01/13 11:41:29;;;;;;;20.43;9.07;;;0.90;99.90;;;;;;4365410;32;20206;-72
2021/01/13 11:44:36;;;;;;;18.37;8.07;;;0.80;99.90;;;;;;4364986;32;20156;-73
2021/01/13 11:47:19;;;;;;;17.77;8.40;;;0.90;99.90;;;;;;4348656;33;20183;-74
2021/01/13 11:49:54;;;;;;;19.83;8.67;;;0.80;99.90;;;;;;4349131;33;20413;-72
2021/01/13 11:52:23;;;;;;;21.07;9.03;;;0.90;99.90;;;;;;4348490;33;20156;-71
2021/01/13 11:54:51;;;;;;;19.70;9.70;;;0.80;99.90;;;;;;4349596;33;20196;-72
2021/01/13 11:57:26;;;;;;;20.70;10.03;;;0.80;99.90;;;;;;4349954;33;20196;-71
2021/01/13 12:00:10;;;;;;;21.00;9.67;;;0.90;99.90;;;;;;4348668;33;20159;-73
2021/01/13 12:02:37;;;;;;;28.37;10.90;;;0.80;99.90;;;;;;4349534;33;20144;-72
2021/01/13 12:05:07;;;;;;;26.80;12.27;;;0.90;99.90;;;;;;4349325;33;20152;-72
2021/01/13 12:07:34;;;;;;;26.60;11.87;;;1.00;99.90;;;;;;4349255;33;20183;-72
2021/01/13 12:10:32;;;;;;;24.30;11.90;;;1.10;99.90;;;;;;4363579;32;20151;-73
2021/01/13 12:13:21;;;;;;;24.20;11.00;;;1.00;99.90;;;;;;4377918;32;20197;-73
2021/01/13 12:15:50;;;;;;;23.50;10.63;;;0.90;99.90;;;;;;4376966;32;20221;-73
2021/01/13 12:18:47;;;;;;;24.07;11.27;;;0.90;99.90;;;;;;4364215;33;20157;-72
2021/01/13 12:21:14;;;;;;;24.63;11.20;;;0.90;99.90;;;;;;4357983;33;20180;-73
2021/01/13 12:23:41;;;;;;;26.93;12.23;;;1.10;99.90;;;;;;4363914;33;20160;-73
2021/01/13 12:26:30;;;;;;;25.27;11.70;;;1.10;99.90;;;;;;4365064;33;20151;-71
2021/01/13 12:29:05;;;;;;;25.30;12.17;;;1.10;99.90;;;;;;4363736;33;20144;-70
2021/01/13 12:31:40;;;;;;;26.77;12.27;;;1.10;99.90;;;;;;4363415;33;20144;-69
2021/01/13 12:34:25;;;;;;;28.70;12.63;;;1.20;99.90;;;;;;4363992;33;20151;-69
2021/01/13 12:37:03;;;;;;;27.27;12.40;;;1.30;99.90;;;;;;4363904;33;20140;-69
2021/01/13 12:39:34;;;;;;;24.77;12.03;;;1.40;99.90;;;;;;4364287;33;20213;-69
2021/01/13 12:42:03;;;;;;;24.90;12.73;;;1.40;99.90;;;;;;4364621;33;20537;-70
2021/01/13 12:44:31;;;;;;;24.43;12.50;;;1.60;99.90;;;;;;4364903;32;20555;-69
2021/01/13 12:47:08;;;;;;;28.03;13.20;;;1.80;99.90;;;;;;4370801;32;20446;-70
2021/01/13 12:49:34;;;;;;;24.57;12.10;;;1.80;99.90;;;;;;4368116;32;20160;-72
2021/01/13 12:52:01;;;;;;;24.17;11.67;;;1.90;99.90;;;;;;4376635;32;20202;-72
2021/01/13 12:54:27;;;;;;;23.37;11.80;;;1.90;99.90;;;;;;4378367;32;20202;-72
2021/01/13 12:56:54;;;;;;;20.97;10.87;;;1.80;99.90;;;;;;4378578;32;20499;-71
2021/01/13 12:59:21;;;;;;;26.97;12.10;;;1.70;99.90;;;;;;4378363;32;20147;-71
2021/01/13 13:01:49;;;;;;;28.37;13.23;;;1.70;99.90;;;;;;4380036;32;20205;-72
2021/01/13 13:04:16;;;;;;;25.77;13.07;;;1.60;99.90;;;;;;4378599;32;20199;-72
2021/01/13 13:06:43;;;;;;;25.40;13.03;;;1.50;99.90;;;;;;4378530;32;20175;-72
2021/01/13 13:09:15;;;;;;;25.87;12.73;;;1.30;99.90;;;;;;4378504;32;20426;-73
2021/01/13 13:11:46;;;;;;;27.83;13.37;;;1.30;99.90;;;;;;4380234;32;20171;-73
2021/01/13 13:14:13;;;;;;;26.47;12.33;;;1.10;99.90;;;;;;4378420;32;20284;-72
2021/01/13 13:16:43;;;;;;;25.87;12.23;;;1.00;99.90;;;;;;4378353;32;20183;-73